Main page
METAR-TAF:

METAR-TAF

Airports :

Corona Municipal Airport

Corona, California, United States

latitude: 33-53-52N, longitude: 117-36-09W, elevation: 531 ft

Current weather observation

The report was made 11 minutes ago, at 20:56 UTC
Wind 16 mph from the West/Northwest with gusts up to 22 mph
Temperature 91°F
Humidity 32%
Pressure 29.97 in. Hg
Visibility: 10 miles
Clear sky

METAR: KAJO 282056Z AUTO 29014G19KT 10SM CLR 33/14 A2997 RMK AO2 SLP141 T03330144 58013

Time: 14:07 (21:07 UTC)


TAF: missing

Weather observations and forecasts of more than 4000 airports (METAR and TAF reports).

The available stations are represented by yellow and red dots on the map.

Hover mouse over dot to see the name of the station.

Then click to see weather observations and forecasts.

To change the map : click on the green buttons with a black cross to zoom in, on the green button with a dash to zoom out, or on the green arrows for adjacent maps.


METAR-TAF: